FDX563 KAFW-KMEM
Flight info
| Callsign | FDX563 |
|---|---|
| Flight time | 0h 59m |
| Altitude | 33000 |
| Route | KUSSO2 FORCK ELD HOBRK4 |
| Aircraft | MD11/H-SDE1E2E3FGHIJ2J3J4J5M1RWXY/LB1D1 |
Departure
| Time | 2026-04-25 03:00 |
|---|---|
| Airport | Perot Field/Fort Worth Alliance Airport (KAFW) |
Arrival
| Time | 2026-04-25 04:00 |
|---|---|
| Airport | Memphis International Airport (KMEM) |
| Time | Latitude | Longitude | Altitude | Speed | Heading |
|---|---|---|---|---|---|
| 2026-04-25 02:47 | 32.99662 | -97.31122 | 720 ft | 0 kts | 170° |
| 2026-04-25 02:52 | 32.99667 | -97.31123 | 721 ft | 4 kts | 170° |
| 2026-04-25 02:52 | 32.99693 | -97.31128 | 720 ft | 4 kts | 172° |
| 2026-04-25 02:52 | 32.99716 | -97.31131 | 717 ft | 2 kts | 187° |
| 2026-04-25 02:52 | 32.99728 | -97.31128 | 721 ft | 2 kts | 221° |
| 2026-04-25 02:53 | 32.99735 | -97.31118 | 720 ft | 2 kts | 252° |
| 2026-04-25 02:53 | 32.99738 | -97.31105 | 720 ft | 2 kts | 259° |
| 2026-04-25 02:53 | 32.99740 | -97.31092 | 719 ft | 2 kts | 262° |
| 2026-04-25 02:53 | 32.99741 | -97.31086 | 718 ft | 0 kts | 262° |
| 2026-04-25 02:54 | 32.99740 | -97.31090 | 718 ft | 3 kts | 262° |
| 2026-04-25 02:54 | 32.99739 | -97.31151 | 720 ft | 11 kts | 284° |
| 2026-04-25 02:55 | 32.99797 | -97.31190 | 720 ft | 11 kts | 347° |
| 2026-04-25 02:55 | 32.99873 | -97.31269 | 720 ft | 19 kts | 277° |
| 2026-04-25 02:55 | 32.99850 | -97.31445 | 724 ft | 25 kts | 260° |
| 2026-04-25 02:55 | 32.99821 | -97.31660 | 730 ft | 25 kts | 261° |
| 2026-04-25 02:56 | 32.99783 | -97.31839 | 733 ft | 17 kts | 231° |
| 2026-04-25 02:56 | 32.99707 | -97.31852 | 729 ft | 12 kts | 171° |
| 2026-04-25 02:56 | 32.99560 | -97.31820 | 725 ft | 31 kts | 169° |
| 2026-04-25 02:56 | 32.99290 | -97.31764 | 723 ft | 46 kts | 171° |
| 2026-04-25 02:57 | 32.98983 | -97.31702 | 715 ft | 43 kts | 170° |
| 2026-04-25 02:57 | 32.98698 | -97.31641 | 694 ft | 40 kts | 169° |
| 2026-04-25 02:57 | 32.98434 | -97.31589 | 694 ft | 37 kts | 171° |
| 2026-04-25 02:57 | 32.98196 | -97.31541 | 692 ft | 34 kts | 170° |
| 2026-04-25 02:58 | 32.97976 | -97.31495 | 690 ft | 30 kts | 171° |
| 2026-04-25 02:58 | 32.97773 | -97.31455 | 684 ft | 30 kts | 171° |
| 2026-04-25 02:58 | 32.97623 | -97.31429 | 681 ft | 7 kts | 187° |
| 2026-04-25 02:58 | 32.97606 | -97.31445 | 681 ft | 5 kts | 227° |
| 2026-04-25 02:59 | 32.97581 | -97.31535 | 681 ft | 17 kts | 259° |
| 2026-04-25 02:59 | 32.97563 | -97.31668 | 680 ft | 16 kts | 261° |
| 2026-04-25 02:59 | 32.97569 | -97.31728 | 678 ft | 7 kts | 304° |
| 2026-04-25 02:59 | 32.97659 | -97.31766 | 681 ft | 25 kts | 349° |
| 2026-04-25 03:00 | 32.98082 | -97.31851 | 688 ft | 103 kts | 351° |
| 2026-04-25 03:00 | 32.99035 | -97.32045 | 714 ft | 172 kts | 350° |
| 2026-04-25 03:00 | 33.00323 | -97.32311 | 1073 ft | 190 kts | 349° |
| 2026-04-25 03:00 | 33.01581 | -97.32575 | 2032 ft | 178 kts | 351° |
| 2026-04-25 03:01 | 33.02813 | -97.32815 | 2819 ft | 184 kts | 349° |
| 2026-04-25 03:01 | 33.04094 | -97.32942 | 3494 ft | 189 kts | 7° |
| 2026-04-25 03:01 | 33.05290 | -97.32249 | 4048 ft | 208 kts | 40° |
| 2026-04-25 03:01 | 33.06107 | -97.30676 | 4227 ft | 242 kts | 73° |
| 2026-04-25 03:02 | 33.06163 | -97.28589 | 4404 ft | 267 kts | 103° |
| 2026-04-25 03:02 | 33.05484 | -97.26443 | 4694 ft | 284 kts | 116° |
| 2026-04-25 03:02 | 33.04618 | -97.24306 | 5395 ft | 290 kts | 116° |
| 2026-04-25 03:02 | 33.03762 | -97.22100 | 6118 ft | 295 kts | 115° |
| 2026-04-25 03:03 | 33.02942 | -97.19832 | 6789 ft | 301 kts | 114° |
| 2026-04-25 03:03 | 33.02149 | -97.17503 | 7511 ft | 305 kts | 112° |
| 2026-04-25 03:03 | 33.01375 | -97.15131 | 8243 ft | 309 kts | 112° |
| 2026-04-25 03:03 | 33.00612 | -97.12724 | 8972 ft | 312 kts | 111° |
| 2026-04-25 03:04 | 32.99863 | -97.10315 | 9693 ft | 316 kts | 111° |
| 2026-04-25 03:04 | 32.99097 | -97.07830 | 10209 ft | 328 kts | 111° |
| 2026-04-25 03:04 | 32.98282 | -97.05171 | 10319 ft | 354 kts | 111° |
| 2026-04-25 03:05 | 32.96485 | -96.99282 | 10889 ft | 390 kts | 111° |
| 2026-04-25 03:05 | 32.95567 | -96.96258 | 11552 ft | 396 kts | 111° |
| 2026-04-25 03:05 | 32.94625 | -96.93155 | 12222 ft | 402 kts | 111° |
| 2026-04-25 03:05 | 32.93668 | -96.90006 | 12878 ft | 407 kts | 112° |
| 2026-04-25 03:06 | 32.92699 | -96.86821 | 13524 ft | 413 kts | 112° |
| 2026-04-25 03:06 | 32.91712 | -96.83584 | 14109 ft | 418 kts | 112° |
| 2026-04-25 03:06 | 32.90712 | -96.80306 | 14717 ft | 423 kts | 112° |
| 2026-04-25 03:06 | 32.89704 | -96.77004 | 15334 ft | 427 kts | 112° |
| 2026-04-25 03:07 | 32.88685 | -96.73672 | 15934 ft | 431 kts | 112° |
| 2026-04-25 03:07 | 32.87654 | -96.70304 | 16550 ft | 435 kts | 112° |
| 2026-04-25 03:07 | 32.86614 | -96.66910 | 17155 ft | 439 kts | 111° |
| 2026-04-25 03:07 | 32.85562 | -96.63482 | 17769 ft | 443 kts | 111° |
| 2026-04-25 03:08 | 32.84509 | -96.60022 | 18310 ft | 447 kts | 109° |
| 2026-04-25 03:08 | 32.83784 | -96.56412 | 18804 ft | 451 kts | 99° |
| 2026-04-25 03:08 | 32.83445 | -96.52683 | 19330 ft | 455 kts | 94° |
| 2026-04-25 03:08 | 32.83285 | -96.48908 | 19820 ft | 459 kts | 91° |
| 2026-04-25 03:09 | 32.83142 | -96.45110 | 20273 ft | 463 kts | 96° |
| 2026-04-25 03:09 | 32.82776 | -96.42555 | 20621 ft | 464 kts | 104° |
| 2026-04-25 03:09 | 32.81837 | -96.38877 | 21097 ft | 468 kts | 111° |
| 2026-04-25 03:09 | 32.80640 | -96.35263 | 21556 ft | 471 kts | 114° |
| 2026-04-25 03:10 | 32.79398 | -96.31643 | 22003 ft | 475 kts | 110° |
| 2026-04-25 03:10 | 32.78532 | -96.27846 | 22482 ft | 479 kts | 98° |
| 2026-04-25 03:10 | 32.78355 | -96.23901 | 22956 ft | 480 kts | 84° |
| 2026-04-25 03:10 | 32.78758 | -96.19958 | 23395 ft | 481 kts | 77° |
| 2026-04-25 03:11 | 32.79425 | -96.16049 | 23796 ft | 484 kts | 75° |
| 2026-04-25 03:11 | 32.80168 | -96.12138 | 24193 ft | 487 kts | 74° |
| 2026-04-25 03:11 | 32.80902 | -96.08193 | 24579 ft | 490 kts | 75° |
| 2026-04-25 03:11 | 32.81600 | -96.04215 | 24972 ft | 494 kts | 76° |
| 2026-04-25 03:12 | 32.82265 | -96.00200 | 25357 ft | 498 kts | 76° |
| 2026-04-25 03:12 | 32.82910 | -95.96138 | 25758 ft | 501 kts | 77° |
| 2026-04-25 03:12 | 32.83536 | -95.92106 | 26126 ft | 504 kts | 77° |
| 2026-04-25 03:12 | 32.84168 | -95.87990 | 26483 ft | 508 kts | 77° |
| 2026-04-25 03:13 | 32.84798 | -95.83847 | 26840 ft | 511 kts | 77° |
| 2026-04-25 03:13 | 32.85342 | -95.79654 | 27210 ft | 515 kts | 79° |
| 2026-04-25 03:13 | 32.85798 | -95.75413 | 27560 ft | 519 kts | 81° |
| 2026-04-25 03:13 | 32.86214 | -95.71131 | 27919 ft | 523 kts | 81° |
| 2026-04-25 03:14 | 32.86618 | -95.66822 | 28261 ft | 526 kts | 81° |
| 2026-04-25 03:14 | 32.87026 | -95.62488 | 28591 ft | 529 kts | 81° |
| 2026-04-25 03:14 | 32.87443 | -95.58123 | 28919 ft | 532 kts | 81° |
| 2026-04-25 03:14 | 32.87868 | -95.53736 | 29243 ft | 535 kts | 80° |
| 2026-04-25 03:15 | 32.88299 | -95.49323 | 29568 ft | 539 kts | 80° |
| 2026-04-25 03:15 | 32.88733 | -95.44886 | 29887 ft | 542 kts | 80° |
| 2026-04-25 03:15 | 32.89168 | -95.40429 | 30266 ft | 542 kts | 80° |
| 2026-04-25 03:15 | 32.89600 | -95.35974 | 30665 ft | 542 kts | 80° |
| 2026-04-25 03:16 | 32.90030 | -95.31514 | 31060 ft | 542 kts | 80° |
| 2026-04-25 03:16 | 32.90458 | -95.27064 | 31459 ft | 542 kts | 80° |
| 2026-04-25 03:16 | 32.90886 | -95.22601 | 31827 ft | 542 kts | 80° |
| 2026-04-25 03:16 | 32.91310 | -95.18152 | 32238 ft | 542 kts | 80° |
| 2026-04-25 03:17 | 32.91734 | -95.13696 | 32636 ft | 541 kts | 80° |
| 2026-04-25 03:17 | 32.92157 | -95.09239 | 32784 ft | 544 kts | 80° |
| 2026-04-25 03:17 | 32.92965 | -95.00273 | 32836 ft | 545 kts | 81° |
| 2026-04-25 03:18 | 32.93768 | -94.91314 | 32838 ft | 543 kts | 81° |
| 2026-04-25 03:18 | 32.94592 | -94.82377 | 32831 ft | 543 kts | 81° |
| 2026-04-25 03:19 | 32.95420 | -94.73452 | 32820 ft | 542 kts | 81° |
| 2026-04-25 03:19 | 32.96240 | -94.64529 | 32801 ft | 542 kts | 81° |
| 2026-04-25 03:20 | 32.97046 | -94.55673 | 32797 ft | 541 kts | 81° |
| 2026-04-25 03:20 | 32.97849 | -94.46773 | 32811 ft | 540 kts | 81° |
| 2026-04-25 03:21 | 32.98645 | -94.37881 | 32827 ft | 539 kts | 81° |
| 2026-04-25 03:21 | 32.99484 | -94.29014 | 32841 ft | 537 kts | 78° |
| 2026-04-25 03:22 | 33.00831 | -94.20292 | 32851 ft | 535 kts | 75° |
| 2026-04-25 03:22 | 33.02404 | -94.11645 | 32846 ft | 534 kts | 74° |
| 2026-04-25 03:23 | 33.03958 | -94.03003 | 32895 ft | 533 kts | 75° |
| 2026-04-25 03:23 | 33.05466 | -93.94352 | 32868 ft | 533 kts | 75° |
| 2026-04-25 03:24 | 33.06953 | -93.85712 | 32840 ft | 532 kts | 75° |
| 2026-04-25 03:24 | 33.08433 | -93.77073 | 32810 ft | 531 kts | 75° |
| 2026-04-25 03:25 | 33.09906 | -93.68452 | 32812 ft | 530 kts | 76° |
| 2026-04-25 03:25 | 33.11373 | -93.59835 | 32825 ft | 530 kts | 76° |
| 2026-04-25 03:26 | 33.12831 | -93.51232 | 32861 ft | 529 kts | 76° |
| 2026-04-25 03:26 | 33.14281 | -93.42633 | 32891 ft | 528 kts | 76° |
| 2026-04-25 03:27 | 33.15723 | -93.34047 | 32921 ft | 527 kts | 77° |
| 2026-04-25 03:27 | 33.17133 | -93.25472 | 32929 ft | 526 kts | 77° |
| 2026-04-25 03:28 | 33.18541 | -93.16902 | 32932 ft | 526 kts | 77° |
| 2026-04-25 03:28 | 33.19945 | -93.08403 | 32923 ft | 525 kts | 77° |
| 2026-04-25 03:29 | 33.21356 | -92.99859 | 32875 ft | 524 kts | 78° |
| 2026-04-25 03:29 | 33.22759 | -92.91324 | 32886 ft | 523 kts | 78° |
| 2026-04-25 03:30 | 33.24154 | -92.82794 | 32887 ft | 523 kts | 78° |
| 2026-04-25 03:30 | 33.25903 | -92.74388 | 32890 ft | 521 kts | 66° |
| 2026-04-25 03:31 | 33.29499 | -92.66959 | 32881 ft | 516 kts | 51° |
| 2026-04-25 03:31 | 33.33870 | -92.60153 | 32868 ft | 517 kts | 50° |
| 2026-04-25 03:32 | 33.38130 | -92.53222 | 32857 ft | 518 kts | 52° |
| 2026-04-25 03:32 | 33.42243 | -92.46139 | 32859 ft | 518 kts | 53° |
| 2026-04-25 03:33 | 33.46313 | -92.39007 | 32853 ft | 519 kts | 54° |
| 2026-04-25 03:33 | 33.50387 | -92.31868 | 32849 ft | 520 kts | 54° |
| 2026-04-25 03:34 | 33.54473 | -92.24710 | 32850 ft | 520 kts | 54° |
| 2026-04-25 03:34 | 33.58558 | -92.17547 | 32855 ft | 521 kts | 54° |
| 2026-04-25 03:35 | 33.62648 | -92.10360 | 32864 ft | 522 kts | 54° |
| 2026-04-25 03:35 | 33.66714 | -92.03202 | 32878 ft | 522 kts | 54° |
| 2026-04-25 03:36 | 33.70800 | -91.95991 | 32881 ft | 523 kts | 55° |
| 2026-04-25 03:36 | 33.74879 | -91.88759 | 32889 ft | 523 kts | 55° |
| 2026-04-25 03:37 | 33.78945 | -91.81510 | 32677 ft | 520 kts | 55° |
| 2026-04-25 03:37 | 33.80954 | -91.77934 | 32388 ft | 513 kts | 55° |
| 2026-04-25 03:37 | 33.82946 | -91.74391 | 31908 ft | 511 kts | 55° |
| 2026-04-25 03:38 | 33.84940 | -91.70846 | 31285 ft | 511 kts | 55° |
| 2026-04-25 03:38 | 33.86924 | -91.67316 | 30694 ft | 510 kts | 54° |
| 2026-04-25 03:38 | 33.88910 | -91.63782 | 30087 ft | 509 kts | 54° |
| 2026-04-25 03:38 | 33.90920 | -91.60273 | 29413 ft | 509 kts | 52° |
| 2026-04-25 03:39 | 33.93090 | -91.56918 | 28780 ft | 508 kts | 49° |
| 2026-04-25 03:39 | 33.95378 | -91.53677 | 28151 ft | 508 kts | 47° |
| 2026-04-25 03:39 | 33.97720 | -91.50485 | 27515 ft | 509 kts | 46° |
| 2026-04-25 03:39 | 34.00079 | -91.47302 | 26890 ft | 509 kts | 46° |
| 2026-04-25 03:40 | 34.02433 | -91.44111 | 26276 ft | 509 kts | 46° |
| 2026-04-25 03:40 | 34.04776 | -91.40908 | 25649 ft | 509 kts | 46° |
| 2026-04-25 03:40 | 34.07101 | -91.37705 | 25032 ft | 505 kts | 46° |
| 2026-04-25 03:40 | 34.09395 | -91.34528 | 24417 ft | 499 kts | 46° |
| 2026-04-25 03:41 | 34.11658 | -91.31384 | 23817 ft | 493 kts | 46° |
| 2026-04-25 03:41 | 34.13891 | -91.28278 | 23230 ft | 486 kts | 46° |
| 2026-04-25 03:41 | 34.16090 | -91.25216 | 22864 ft | 478 kts | 46° |
| 2026-04-25 03:41 | 34.18215 | -91.22253 | 22550 ft | 458 kts | 46° |
| 2026-04-25 03:42 | 34.20266 | -91.19387 | 21962 ft | 444 kts | 46° |
| 2026-04-25 03:42 | 34.22265 | -91.16599 | 21321 ft | 434 kts | 46° |
| 2026-04-25 03:42 | 34.24224 | -91.13870 | 20704 ft | 425 kts | 46° |
| 2026-04-25 03:42 | 34.26145 | -91.11197 | 20112 ft | 419 kts | 45° |
| 2026-04-25 03:43 | 34.28050 | -91.08548 | 19527 ft | 415 kts | 45° |
| 2026-04-25 03:43 | 34.29939 | -91.05920 | 18945 ft | 412 kts | 45° |
| 2026-04-25 03:43 | 34.31807 | -91.03317 | 18373 ft | 408 kts | 45° |
| 2026-04-25 03:43 | 34.33661 | -91.00732 | 17826 ft | 404 kts | 45° |
| 2026-04-25 03:44 | 34.35500 | -90.98166 | 17233 ft | 402 kts | 46° |
| 2026-04-25 03:44 | 34.37322 | -90.95621 | 16646 ft | 398 kts | 46° |
| 2026-04-25 03:44 | 34.39127 | -90.93098 | 16103 ft | 395 kts | 46° |
| 2026-04-25 03:44 | 34.40919 | -90.90590 | 15546 ft | 392 kts | 46° |
| 2026-04-25 03:45 | 34.42686 | -90.88115 | 15014 ft | 384 kts | 46° |
| 2026-04-25 03:45 | 34.44416 | -90.85690 | 14495 ft | 377 kts | 46° |
| 2026-04-25 03:45 | 34.46114 | -90.83307 | 13980 ft | 370 kts | 46° |
| 2026-04-25 03:45 | 34.47788 | -90.80958 | 13453 ft | 368 kts | 46° |
| 2026-04-25 03:46 | 34.49455 | -90.78620 | 12908 ft | 365 kts | 46° |
| 2026-04-25 03:46 | 34.51065 | -90.76318 | 12446 ft | 361 kts | 49° |
| 2026-04-25 03:46 | 34.52610 | -90.73924 | 11987 ft | 361 kts | 51° |
| 2026-04-25 03:46 | 34.54113 | -90.71499 | 11470 ft | 358 kts | 51° |
| 2026-04-25 03:47 | 34.55585 | -90.69094 | 11082 ft | 353 kts | 52° |
| 2026-04-25 03:47 | 34.57045 | -90.66706 | 10723 ft | 352 kts | 52° |
| 2026-04-25 03:47 | 34.58491 | -90.64343 | 10491 ft | 342 kts | 52° |
| 2026-04-25 03:47 | 34.59872 | -90.62086 | 10337 ft | 325 kts | 52° |
| 2026-04-25 03:48 | 34.61184 | -90.59946 | 10224 ft | 308 kts | 52° |
| 2026-04-25 03:48 | 34.62362 | -90.57873 | 10095 ft | 292 kts | 61° |
| 2026-04-25 03:48 | 34.63207 | -90.55650 | 9735 ft | 289 kts | 68° |
| 2026-04-25 03:48 | 34.63948 | -90.53397 | 9309 ft | 286 kts | 68° |
| 2026-04-25 03:49 | 34.64677 | -90.51159 | 8913 ft | 284 kts | 69° |
| 2026-04-25 03:49 | 34.65403 | -90.48939 | 8491 ft | 282 kts | 68° |
| 2026-04-25 03:49 | 34.66127 | -90.46744 | 8094 ft | 279 kts | 68° |
| 2026-04-25 03:49 | 34.66848 | -90.44568 | 7716 ft | 277 kts | 68° |
| 2026-04-25 03:50 | 34.67569 | -90.42409 | 7323 ft | 274 kts | 68° |
| 2026-04-25 03:50 | 34.68289 | -90.40267 | 6960 ft | 273 kts | 68° |
| 2026-04-25 03:50 | 34.69003 | -90.38151 | 6600 ft | 270 kts | 68° |
| 2026-04-25 03:50 | 34.69716 | -90.36052 | 6236 ft | 267 kts | 68° |
| 2026-04-25 03:51 | 34.70428 | -90.33970 | 5865 ft | 266 kts | 68° |
| 2026-04-25 03:51 | 34.71140 | -90.31904 | 5492 ft | 265 kts | 68° |
| 2026-04-25 03:51 | 34.71855 | -90.29849 | 5138 ft | 262 kts | 68° |
| 2026-04-25 03:51 | 34.72557 | -90.27847 | 5014 ft | 255 kts | 68° |
| 2026-04-25 03:52 | 34.73266 | -90.25836 | 5016 ft | 260 kts | 68° |
| 2026-04-25 03:52 | 34.73977 | -90.23821 | 4932 ft | 258 kts | 68° |
| 2026-04-25 03:52 | 34.74686 | -90.21819 | 4456 ft | 256 kts | 68° |
| 2026-04-25 03:52 | 34.75384 | -90.19857 | 4027 ft | 250 kts | 68° |
| 2026-04-25 03:53 | 34.76086 | -90.17890 | 3660 ft | 255 kts | 68° |
| 2026-04-25 03:53 | 34.76324 | -90.17225 | 3533 ft | 254 kts | 68° |
| 2026-04-25 03:53 | 34.76718 | -90.16126 | 3338 ft | 248 kts | 68° |
| 2026-04-25 03:53 | 34.77396 | -90.14254 | 3033 ft | 233 kts | 68° |
| 2026-04-25 03:54 | 34.78080 | -90.12569 | 2967 ft | 219 kts | 56° |
| 2026-04-25 03:54 | 34.79081 | -90.11167 | 3027 ft | 224 kts | 48° |
| 2026-04-25 03:54 | 34.80170 | -90.09797 | 2986 ft | 225 kts | 47° |
| 2026-04-25 03:54 | 34.81253 | -90.08415 | 2987 ft | 225 kts | 48° |
| 2026-04-25 03:55 | 34.82322 | -90.07023 | 2990 ft | 225 kts | 49° |
| 2026-04-25 03:55 | 34.83385 | -90.05618 | 2990 ft | 225 kts | 49° |
| 2026-04-25 03:55 | 34.84081 | -90.04688 | 2990 ft | 224 kts | 49° |
| 2026-04-25 03:55 | 34.85127 | -90.03280 | 2991 ft | 224 kts | 50° |
| 2026-04-25 03:56 | 34.86171 | -90.01865 | 2995 ft | 224 kts | 50° |
| 2026-04-25 03:56 | 34.87211 | -90.00449 | 3000 ft | 224 kts | 49° |
| 2026-04-25 03:56 | 34.88384 | -89.99192 | 2980 ft | 226 kts | 32° |
| 2026-04-25 03:56 | 34.90324 | -89.98516 | 2598 ft | 207 kts | 3° |
| 2026-04-25 03:57 | 34.91714 | -89.98456 | 2346 ft | 197 kts | 360° |
| 2026-04-25 03:57 | 34.92618 | -89.98466 | 2199 ft | 186 kts | 358° |
| 2026-04-25 03:57 | 34.93879 | -89.98502 | 1989 ft | 179 kts | 358° |
| 2026-04-25 03:57 | 34.95123 | -89.98534 | 1761 ft | 178 kts | 358° |
| 2026-04-25 03:58 | 34.96353 | -89.98562 | 1542 ft | 177 kts | 358° |
| 2026-04-25 03:58 | 34.97579 | -89.98588 | 1296 ft | 175 kts | 358° |
| 2026-04-25 03:58 | 34.98784 | -89.98622 | 1086 ft | 171 kts | 358° |
| 2026-04-25 03:58 | 34.99955 | -89.98658 | 856 ft | 166 kts | 358° |
| 2026-04-25 03:59 | 35.01112 | -89.98675 | 635 ft | 167 kts | 359° |
| 2026-04-25 03:59 | 35.02250 | -89.98683 | 402 ft | 160 kts | 357° |
| 2026-04-25 03:59 | 35.03262 | -89.98709 | 337 ft | 124 kts | 360° |
| 2026-04-25 03:59 | 35.03993 | -89.98723 | 322 ft | 89 kts | 359° |
| 2026-04-25 04:00 | 35.04504 | -89.98712 | 319 ft | 56 kts | 16° |
| 2026-04-25 04:00 | 35.04734 | -89.98607 | 320 ft | 27 kts | 7° |
| 2026-04-25 04:00 | 35.04910 | -89.98612 | 319 ft | 23 kts | 1° |
| 2026-04-25 04:00 | 35.05058 | -89.98554 | 317 ft | 23 kts | 24° |
| 2026-04-25 04:01 | 35.05215 | -89.98513 | 308 ft | 24 kts | 0° |
| 2026-04-25 04:01 | 35.05377 | -89.98511 | 298 ft | 26 kts | 1° |
| 2026-04-25 04:01 | 35.05572 | -89.98509 | 277 ft | 30 kts | 0° |
| 2026-04-25 04:01 | 35.05779 | -89.98507 | 271 ft | 29 kts | 0° |
| 2026-04-25 04:02 | 35.05965 | -89.98512 | 274 ft | 23 kts | 359° |
| 2026-04-25 04:02 | 35.06026 | -89.98469 | 277 ft | 3 kts | 78° |
| 2026-04-25 04:02 | 35.06024 | -89.98399 | 276 ft | 16 kts | 93° |
| 2026-04-25 04:02 | 35.06019 | -89.98219 | 278 ft | 26 kts | 91° |
| 2026-04-25 04:03 | 35.06012 | -89.97968 | 283 ft | 33 kts | 92° |
| 2026-04-25 04:03 | 35.05992 | -89.97704 | 285 ft | 28 kts | 98° |
| 2026-04-25 04:03 | 35.05954 | -89.97487 | 291 ft | 24 kts | 103° |
| 2026-04-25 04:03 | 35.05937 | -89.97300 | 295 ft | 21 kts | 92° |
| 2026-04-25 04:04 | 35.05932 | -89.97121 | 291 ft | 20 kts | 92° |
| 2026-04-25 04:04 | 35.05927 | -89.96989 | 295 ft | 8 kts | 86° |
| 2026-04-25 04:04 | 35.05936 | -89.96973 | 300 ft | 0 kts | 44° |
| 2026-04-25 04:04 | 35.05947 | -89.96962 | 300 ft | 4 kts | 36° |
| 2026-04-25 04:05 | 35.05968 | -89.96952 | 302 ft | 3 kts | 17° |
| 2026-04-25 04:05 | 35.05993 | -89.96951 | 300 ft | 3 kts | 2° |
| 2026-04-25 04:05 | 35.05999 | -89.96950 | 300 ft | 0 kts | 2° |